createdAt,value
2022-08-21T00:03:27.162Z,20.34
2022-08-21T00:08:49.159Z,20.32
2022-08-21T00:14:07.984Z,20.28
2022-08-21T00:19:36.346Z,20.26
2022-08-21T00:24:53.099Z,20.24
2022-08-21T00:30:01.907Z,20.25
2022-08-21T00:35:13.984Z,20.28
2022-08-21T00:40:27.250Z,20.24
2022-08-21T00:45:43.838Z,20.21
2022-08-21T00:50:58.694Z,20.17
2022-08-21T00:56:11.917Z,20.13
2022-08-21T01:01:16.646Z,20.14
2022-08-21T01:06:44.551Z,20.16
2022-08-21T01:11:51.018Z,20.14
2022-08-21T01:17:10.264Z,20.14
2022-08-21T01:28:27.083Z,20.21
2022-08-21T01:33:33.697Z,20.21
2022-08-21T01:38:47.104Z,20.22
2022-08-21T01:43:57.657Z,20.18
2022-08-21T01:49:05.095Z,20.17
2022-08-21T01:54:13.838Z,20.14
2022-08-21T01:59:22.944Z,20.04
2022-08-21T02:04:39.058Z,19.97
2022-08-21T02:09:50.594Z,19.94
2022-08-21T02:15:03.672Z,19.89
2022-08-21T02:25:40.063Z,19.84
2022-08-21T02:30:50.859Z,19.80
2022-08-21T02:36:12.249Z,19.74
2022-08-21T02:41:30.055Z,19.71
2022-08-21T02:46:49.451Z,19.65
2022-08-21T02:51:53.819Z,19.62
2022-08-21T02:57:13.214Z,19.59
2022-08-21T03:02:30.877Z,19.58
2022-08-21T03:07:53.268Z,19.57
2022-08-21T03:13:13.739Z,19.51
2022-08-21T03:18:19.024Z,19.44
2022-08-21T03:23:25.360Z,19.40
2022-08-21T03:28:38.211Z,19.42
2022-08-21T03:33:46.756Z,19.42
2022-08-21T03:38:54.858Z,19.40
2022-08-21T03:44:08.013Z,19.41
2022-08-21T03:49:18.388Z,19.40
2022-08-21T03:54:23.750Z,19.35
2022-08-21T03:59:38.845Z,19.33
2022-08-21T04:05:06.361Z,19.29
2022-08-21T04:10:12.509Z,19.21
2022-08-21T04:15:23.728Z,19.18
2022-08-21T04:20:31.772Z,19.16
2022-08-21T04:25:39.400Z,19.15
2022-08-21T04:30:56.306Z,19.16
2022-08-21T04:36:03.069Z,19.18
2022-08-21T04:41:13.957Z,19.20
2022-08-21T04:46:22.436Z,19.21
2022-08-21T04:51:31.338Z,19.22
2022-08-21T04:56:43.341Z,19.28
2022-08-21T05:01:50.293Z,19.25
2022-08-21T05:06:57.287Z,19.25
2022-08-21T05:12:02.825Z,19.27
2022-08-21T05:17:15.641Z,19.29
2022-08-21T05:22:23.685Z,19.33
2022-08-21T05:27:33.314Z,19.38
2022-08-21T05:32:43.126Z,19.43
2022-08-21T05:38:05.603Z,19.46
2022-08-21T05:43:19.623Z,19.52
2022-08-21T05:48:31.524Z,19.61
2022-08-21T05:53:35.812Z,19.70
2022-08-21T05:58:40.934Z,19.80
2022-08-21T06:03:50.093Z,19.96
2022-08-21T06:08:57.153Z,20.23
2022-08-21T06:14:03.226Z,20.59
2022-08-21T06:19:11.015Z,20.85
2022-08-21T06:24:17.682Z,20.83
2022-08-21T06:29:23.649Z,20.79
2022-08-21T06:34:32.486Z,20.82
2022-08-21T06:39:51.191Z,20.88
2022-08-21T06:45:05.912Z,20.94
2022-08-21T06:50:31.688Z,20.98
2022-08-21T06:55:37.533Z,20.94
2022-08-21T07:00:44.419Z,20.93
2022-08-21T07:05:55.198Z,20.96
2022-08-21T07:11:06.398Z,20.98
2022-08-21T07:16:12.305Z,21.17
2022-08-21T07:21:25.226Z,21.78
2022-08-21T07:26:34.794Z,22.58
2022-08-21T07:31:42.131Z,22.84
2022-08-21T07:36:48.671Z,22.95
2022-08-21T07:41:54.985Z,22.83
2022-08-21T07:47:05.358Z,22.81
2022-08-21T07:52:27.409Z,22.79
2022-08-21T07:57:36.318Z,22.79
2022-08-21T08:02:44.360Z,22.81
2022-08-21T08:07:59.621Z,22.81
2022-08-21T08:13:10.574Z,22.71
2022-08-21T08:18:22.994Z,22.76
2022-08-21T08:23:35.382Z,22.92
2022-08-21T08:28:42.530Z,22.98
2022-08-21T08:33:53.866Z,23.22
2022-08-21T08:39:04.573Z,23.47
2022-08-21T08:44:12.891Z,23.68
2022-08-21T08:49:26.373Z,23.79
2022-08-21T08:54:40.491Z,23.88
2022-08-21T08:59:50.504Z,23.95
2022-08-21T09:05:02.455Z,24.15
2022-08-21T09:10:20.726Z,24.43
2022-08-21T09:15:37.076Z,24.60
2022-08-21T09:21:17.667Z,24.59
2022-08-21T09:26:27.851Z,24.55
2022-08-21T09:31:38.852Z,24.80
2022-08-21T09:36:48.857Z,24.85
2022-08-21T09:42:08.752Z,25.08
2022-08-21T09:47:18.347Z,25.33
2022-08-21T09:52:28.985Z,25.48
2022-08-21T09:57:50.227Z,25.63
2022-08-21T10:02:58.624Z,25.57
2022-08-21T10:08:06.722Z,25.50
2022-08-21T10:13:16.996Z,25.59
2022-08-21T10:18:30.329Z,25.59
2022-08-21T10:24:04.083Z,25.79
2022-08-21T10:29:24.090Z,25.83
2022-08-21T10:34:45.446Z,25.94
2022-08-21T10:40:03.284Z,26.06
2022-08-21T10:45:36.309Z,26.24
2022-08-21T10:50:54.419Z,26.24
2022-08-21T10:56:23.869Z,26.29
2022-08-21T11:01:40.650Z,26.41
2022-08-21T11:06:55.447Z,26.52
2022-08-21T11:12:11.459Z,26.62
2022-08-21T11:17:27.594Z,26.58
2022-08-21T11:22:55.014Z,26.75
2022-08-21T11:28:09.806Z,26.88
2022-08-21T11:33:46.323Z,26.79
2022-08-21T11:39:04.835Z,26.84
2022-08-21T11:44:23.016Z,26.76
2022-08-21T11:49:54.320Z,26.78
2022-08-21T11:55:13.097Z,26.75
2022-08-21T12:00:21.853Z,26.66
2022-08-21T12:05:48.699Z,26.52
2022-08-21T12:11:07.997Z,26.42
2022-08-21T12:16:17.476Z,26.35
2022-08-21T12:21:30.179Z,26.43
2022-08-21T12:26:51.061Z,26.34
2022-08-21T12:32:06.075Z,26.25
2022-08-21T12:37:27.721Z,26.14
2022-08-21T12:42:58.072Z,26.21
2022-08-21T12:48:14.492Z,26.11
2022-08-21T12:53:36.653Z,26.16
2022-08-21T12:58:55.578Z,26.35
2022-08-21T13:04:16.649Z,26.39
2022-08-21T13:09:29.891Z,26.41
2022-08-21T13:14:45.955Z,26.28
2022-08-21T13:20:00.297Z,26.30
2022-08-21T13:25:20.947Z,26.22
2022-08-21T13:30:33.516Z,26.24
2022-08-21T13:35:52.767Z,26.29
2022-08-21T13:41:21.776Z,26.23
2022-08-21T13:46:45.875Z,26.15
2022-08-21T13:51:53.936Z,26.15
2022-08-21T13:57:02.816Z,26.12
2022-08-21T14:02:25.669Z,26.07
2022-08-21T14:07:37.535Z,25.93
2022-08-21T14:12:50.058Z,25.86
2022-08-21T14:17:59.320Z,25.87
2022-08-21T14:23:16.393Z,25.86
2022-08-21T14:28:33.297Z,25.81
2022-08-21T14:33:43.741Z,25.71
2022-08-21T14:39:01.827Z,25.67
2022-08-21T14:44:22.950Z,25.58
2022-08-21T14:49:30.696Z,25.56
2022-08-21T14:54:40.773Z,25.52
2022-08-21T14:59:55.117Z,25.56
2022-08-21T15:05:05.229Z,25.50
2022-08-21T15:10:15.699Z,25.46
2022-08-21T15:15:29.803Z,25.45
2022-08-21T15:20:44.115Z,25.39
2022-08-21T15:25:52.452Z,25.35
2022-08-21T15:31:02.118Z,25.36
2022-08-21T15:36:11.547Z,25.35
2022-08-21T15:41:21.745Z,25.32
2022-08-21T15:46:30.534Z,25.34
2022-08-21T15:51:36.453Z,25.31
2022-08-21T15:56:56.273Z,25.28
2022-08-21T16:02:10.772Z,25.30
2022-08-21T16:07:20.483Z,25.26
2022-08-21T16:12:30.575Z,25.22
2022-08-21T16:17:41.254Z,25.20
2022-08-21T16:22:53.153Z,25.12
2022-08-21T16:28:06.854Z,25.06
2022-08-21T16:33:34.440Z,25.07
2022-08-21T16:38:44.816Z,25.07
2022-08-21T16:43:55.918Z,25.02
2022-08-21T16:49:15.969Z,24.97
2022-08-21T16:54:26.602Z,24.91
2022-08-21T16:59:44.238Z,24.91
2022-08-21T17:05:03.727Z,24.91
2022-08-21T17:10:30.997Z,24.88
2022-08-21T17:15:43.427Z,24.83
2022-08-21T17:20:54.934Z,24.79
2022-08-21T17:26:03.788Z,24.77
2022-08-21T17:31:13.204Z,24.74
2022-08-21T17:36:19.514Z,24.71
2022-08-21T17:41:26.228Z,24.60
2022-08-21T17:46:38.286Z,24.50
2022-08-21T17:51:45.133Z,24.45
2022-08-21T17:56:49.549Z,24.39
2022-08-21T18:02:23.277Z,24.29
2022-08-21T18:07:32.660Z,24.20
2022-08-21T18:13:02.863Z,24.11
2022-08-21T18:18:14.043Z,24.03
2022-08-21T18:23:20.962Z,23.88
2022-08-21T18:28:52.036Z,23.78
2022-08-21T18:34:01.457Z,23.74
2022-08-21T18:39:35.401Z,23.69
2022-08-21T18:44:40.341Z,23.60
2022-08-21T18:50:03.233Z,23.53
2022-08-21T18:55:17.873Z,23.46
2022-08-21T19:00:26.745Z,23.37
2022-08-21T19:05:36.520Z,23.27
2022-08-21T19:10:57.455Z,23.20
2022-08-21T19:16:15.815Z,23.10
2022-08-21T19:21:22.664Z,23.01
2022-08-21T19:26:36.502Z,22.94
2022-08-21T19:31:44.554Z,22.86
2022-08-21T19:37:08.505Z,22.77
2022-08-21T19:42:28.700Z,22.68
2022-08-21T19:47:52.134Z,22.61
2022-08-21T19:53:01.874Z,22.50
2022-08-21T19:58:22.746Z,22.45
2022-08-21T20:03:43.753Z,22.36
2022-08-21T20:08:53.740Z,22.30
2022-08-21T20:14:06.446Z,22.20
2022-08-21T20:19:24.737Z,22.14
2022-08-21T20:24:31.359Z,22.05
2022-08-21T20:29:51.916Z,22.00
2022-08-21T20:34:59.141Z,21.91
2022-08-21T20:40:08.502Z,21.87
2022-08-21T20:45:22.330Z,21.78
2022-08-21T20:50:30.316Z,21.70
2022-08-21T20:55:44.134Z,21.67
2022-08-21T21:00:56.696Z,21.54
2022-08-21T21:06:10.004Z,21.46
2022-08-21T21:11:21.854Z,21.40
2022-08-21T21:16:33.644Z,21.36
2022-08-21T21:21:51.359Z,21.31
2022-08-21T21:27:11.838Z,21.25
2022-08-21T21:37:52.316Z,21.15
2022-08-21T21:43:07.426Z,21.09
2022-08-21T21:53:55.296Z,20.97
2022-08-21T22:05:01.022Z,20.85
2022-08-21T22:10:30.078Z,20.77
2022-08-21T22:15:33.739Z,20.70
2022-08-21T22:20:43.006Z,20.64
2022-08-21T22:25:51.423Z,20.57
2022-08-21T22:30:58.201Z,20.49
2022-08-21T22:36:15.032Z,20.39
2022-08-21T22:41:27.936Z,20.31
2022-08-21T22:46:35.098Z,20.23
2022-08-21T22:51:43.429Z,20.12
2022-08-21T22:56:56.561Z,20.06
2022-08-21T23:02:12.449Z,19.99
2022-08-21T23:07:32.810Z,19.92
2022-08-21T23:12:43.714Z,19.82
2022-08-21T23:18:01.406Z,19.74
2022-08-21T23:23:12.311Z,19.68
2022-08-21T23:28:32.633Z,19.62
2022-08-21T23:33:52.814Z,19.54
2022-08-21T23:39:09.943Z,19.46
2022-08-21T23:44:41.130Z,19.40
2022-08-21T23:49:54.041Z,19.32
2022-08-21T23:55:29.327Z,19.29
